createdAt,value
2023-01-23T00:04:52.270Z,12.20
2023-01-23T00:09:54.460Z,12.50
2023-01-23T00:14:56.687Z,13.52
2023-01-23T00:19:59.661Z,12.52
2023-01-23T00:25:01.901Z,12.88
2023-01-23T00:30:04.961Z,12.45
2023-01-23T00:35:07.494Z,12.88
2023-01-23T00:40:10.435Z,11.98
2023-01-23T00:45:13.665Z,13.20
2023-01-23T00:50:16.149Z,12.15
2023-01-23T00:55:18.401Z,13.00
2023-01-23T01:00:20.912Z,12.38
2023-01-23T01:05:23.742Z,11.93
2023-01-23T01:10:29.784Z,12.95
2023-01-23T01:15:32.447Z,12.20
2023-01-23T01:20:34.744Z,12.55
2023-01-23T01:25:37.892Z,11.88
2023-01-23T01:30:41.395Z,11.82
2023-01-23T01:35:43.869Z,11.50
2023-01-23T01:40:46.194Z,11.82
2023-01-23T01:51:13.403Z,12.23
2023-01-23T01:56:17.603Z,13.50
2023-01-23T02:01:20.504Z,13.23
2023-01-23T02:06:22.863Z,11.85
2023-01-23T02:11:26.578Z,12.18
2023-01-23T02:16:32.909Z,11.45
2023-01-23T02:21:37.355Z,12.57
2023-01-23T02:26:42.535Z,13.10
2023-01-23T02:31:46.157Z,13.05
2023-01-23T02:36:50.334Z,13.43
2023-01-23T02:41:55.022Z,13.32
2023-01-23T02:47:08.775Z,13.20
2023-01-23T02:52:11.114Z,13.05
2023-01-23T02:57:14.482Z,13.98
2023-01-23T03:02:17.477Z,13.23
2023-01-23T03:07:19.823Z,13.23
2023-01-23T03:12:22.194Z,13.63
2023-01-23T03:17:25.044Z,13.70
2023-01-23T03:22:28.068Z,13.50
2023-01-23T03:27:30.487Z,12.95
2023-01-23T03:32:33.030Z,12.75
2023-01-23T03:37:35.509Z,12.50
2023-01-23T03:42:37.911Z,12.35
2023-01-23T03:47:42.446Z,12.52
2023-01-23T03:52:44.932Z,13.15
2023-01-23T03:57:47.262Z,12.95
2023-01-23T04:02:49.723Z,13.57
2023-01-23T04:07:53.127Z,13.48
2023-01-23T04:12:55.514Z,13.07
2023-01-23T04:17:58.806Z,13.48
2023-01-23T04:23:01.883Z,13.43
2023-01-23T04:28:05.699Z,12.63
2023-01-23T04:33:08.436Z,14.32
2023-01-23T04:38:12.416Z,13.57
2023-01-23T04:43:14.728Z,14.25
2023-01-23T04:48:21.385Z,12.80
2023-01-23T04:53:23.625Z,12.55
2023-01-23T04:58:33.212Z,13.80
2023-01-23T05:03:38.628Z,12.43
2023-01-23T05:08:40.980Z,12.93
2023-01-23T05:13:54.589Z,12.57
2023-01-23T05:18:57.006Z,12.30
2023-01-23T05:23:59.383Z,13.05
2023-01-23T05:29:01.696Z,13.13
2023-01-23T05:34:05.034Z,19.95
2023-01-23T05:39:08.341Z,13.20
2023-01-23T05:44:10.729Z,13.45
2023-01-23T05:49:23.483Z,13.13
2023-01-23T05:54:26.792Z,13.07
2023-01-23T05:59:29.270Z,15.57
2023-01-23T06:04:51.373Z,12.23
2023-01-23T06:10:00.407Z,13.30
2023-01-23T06:15:02.819Z,13.27
2023-01-23T06:20:05.784Z,13.15
2023-01-23T06:25:09.531Z,12.13
2023-01-23T06:30:12.480Z,12.48
2023-01-23T06:35:18.136Z,12.55
2023-01-23T06:40:21.219Z,12.63
2023-01-23T06:45:37.244Z,12.43
2023-01-23T06:50:42.083Z,12.85
2023-01-23T06:55:45.510Z,12.38
2023-01-23T07:00:49.743Z,12.55
2023-01-23T07:06:13.864Z,12.35
2023-01-23T07:11:16.355Z,12.82
2023-01-23T07:16:19.585Z,13.68
2023-01-23T07:21:21.907Z,12.32
2023-01-23T07:26:24.452Z,12.85
2023-01-23T07:31:27.515Z,12.45
2023-01-23T07:36:30.490Z,13.82
2023-01-23T07:41:32.783Z,13.52
2023-01-23T07:46:38.374Z,12.63
2023-01-23T07:51:40.829Z,12.70
2023-01-23T07:56:43.085Z,12.63
2023-01-23T08:01:45.353Z,13.50
2023-01-23T08:06:47.624Z,13.15
2023-01-23T08:11:52.543Z,12.63
2023-01-23T08:16:55.237Z,14.68
2023-01-23T08:21:57.419Z,14.43
2023-01-23T08:26:59.743Z,14.48
2023-01-23T08:32:02.194Z,13.90
2023-01-23T08:37:04.775Z,12.68
2023-01-23T08:42:07.453Z,12.85
2023-01-23T08:47:09.807Z,13.65
2023-01-23T08:52:12.196Z,13.50
2023-01-23T08:57:14.607Z,13.77
2023-01-23T09:02:17.118Z,13.20
2023-01-23T09:07:19.448Z,12.98
2023-01-23T09:12:21.877Z,12.38
2023-01-23T09:17:24.091Z,13.20
2023-01-23T09:22:26.509Z,12.80
2023-01-23T09:27:28.764Z,12.60
2023-01-23T09:32:31.140Z,12.23
2023-01-23T09:37:58.502Z,13.10
2023-01-23T09:43:12.488Z,13.20
2023-01-23T09:53:31.203Z,13.23
2023-01-23T09:58:46.947Z,12.60
2023-01-23T10:03:49.424Z,12.93
2023-01-23T10:35:47.547Z,13.70
2023-01-23T10:41:09.826Z,12.48
2023-01-23T11:02:17.434Z,14.27
2023-01-23T11:07:26.445Z,13.75
2023-01-23T11:12:31.253Z,14.40
2023-01-23T11:17:33.907Z,14.35
2023-01-23T11:22:41.035Z,14.85
2023-01-23T11:27:58.467Z,16.17
2023-01-23T11:38:52.154Z,14.70
2023-01-23T11:43:55.307Z,15.02
2023-01-23T11:59:57.471Z,14.35
2023-01-23T12:10:39.787Z,15.57
2023-01-23T12:21:08.713Z,16.95
2023-01-23T12:41:54.090Z,16.90
2023-01-23T12:52:15.657Z,17.92
2023-01-23T12:57:52.824Z,18.27
2023-01-23T13:08:38.109Z,20.48
2023-01-23T13:13:46.784Z,19.52
2023-01-23T13:19:22.005Z,18.98
2023-01-23T13:25:06.149Z,20.02
2023-01-23T14:24:03.881Z,18.55
2023-01-23T14:29:22.949Z,18.77
2023-01-23T14:34:26.884Z,19.63
2023-01-23T14:39:32.099Z,20.27
2023-01-23T14:44:45.832Z,21.88
2023-01-23T14:49:48.330Z,22.02
2023-01-23T14:54:54.106Z,20.52
2023-01-23T14:59:58.620Z,21.33
2023-01-23T15:15:34.112Z,19.30
2023-01-23T15:20:40.835Z,19.65
2023-01-23T15:25:43.182Z,19.48
2023-01-23T15:30:48.597Z,18.83
2023-01-23T15:35:51.130Z,19.60
2023-01-23T15:40:53.509Z,18.25
2023-01-23T15:45:55.953Z,19.00
2023-01-23T15:50:59.026Z,18.23
2023-01-23T15:56:02.165Z,19.17
2023-01-23T16:01:05.948Z,18.88
2023-01-23T16:06:21.135Z,18.38
2023-01-23T16:11:23.921Z,17.77
2023-01-23T16:16:26.297Z,18.30
2023-01-23T16:21:30.596Z,16.48
2023-01-23T16:26:34.052Z,17.20
2023-01-23T16:31:38.036Z,16.73
2023-01-23T16:36:40.373Z,16.88
2023-01-23T16:41:42.767Z,17.73
2023-01-23T16:46:46.088Z,18.42
2023-01-23T16:51:56.427Z,16.52
2023-01-23T16:56:58.958Z,17.92
2023-01-23T17:02:04.607Z,16.98
2023-01-23T17:07:14.712Z,16.38
2023-01-23T17:12:22.148Z,15.70
2023-01-23T17:17:34.736Z,14.82
2023-01-23T17:22:41.407Z,15.52
2023-01-23T17:27:45.779Z,14.23
2023-01-23T17:32:53.208Z,14.80
2023-01-23T17:37:58.019Z,13.70
2023-01-23T17:43:00.258Z,13.48
2023-01-23T17:48:02.637Z,13.60
2023-01-23T17:53:05.237Z,14.50
2023-01-23T17:58:07.997Z,14.05
2023-01-23T18:03:15.386Z,13.07
2023-01-23T18:08:19.956Z,13.13
2023-01-23T18:18:35.580Z,12.60
2023-01-23T18:23:38.394Z,11.82
2023-01-23T18:29:06.229Z,12.57
2023-01-23T18:45:00.375Z,13.15
2023-01-23T18:50:03.257Z,12.65
2023-01-23T19:00:37.643Z,13.00
2023-01-23T19:05:40.565Z,12.77
2023-01-23T19:10:49.260Z,11.90
2023-01-23T19:26:17.845Z,12.35
2023-01-23T19:31:23.610Z,11.20
2023-01-23T19:36:27.360Z,12.43
2023-01-23T19:41:46.391Z,11.75
2023-01-23T19:46:48.757Z,12.57
2023-01-23T19:51:51.072Z,12.45
2023-01-23T19:56:53.285Z,13.18
2023-01-23T20:01:55.656Z,12.93
2023-01-23T20:06:58.553Z,11.50
2023-01-23T20:12:00.772Z,10.27
2023-01-23T20:17:29.022Z,10.60
2023-01-23T20:22:31.735Z,10.65
2023-01-23T20:27:34.695Z,11.80
2023-01-23T20:32:37.019Z,10.90
2023-01-23T20:37:39.295Z,11.63
2023-01-23T20:42:41.907Z,12.60
2023-01-23T20:47:44.058Z,27.85
2023-01-23T20:53:06.186Z,12.57
2023-01-23T20:58:28.258Z,11.50
2023-01-23T21:03:30.995Z,11.70
2023-01-23T21:08:34.527Z,11.35
2023-01-23T21:13:37.789Z,10.95
2023-01-23T21:18:44.697Z,11.70
2023-01-23T21:23:49.369Z,11.77
2023-01-23T21:28:53.509Z,12.02
2023-01-23T21:33:56.353Z,10.80
2023-01-23T21:38:59.396Z,11.57
2023-01-23T21:44:01.597Z,11.32
2023-01-23T21:49:04.242Z,10.75
2023-01-23T21:54:06.614Z,11.15
2023-01-23T21:59:08.910Z,11.10
2023-01-23T22:04:14.504Z,12.13
2023-01-23T22:09:18.455Z,12.43
2023-01-23T22:14:21.048Z,11.63
2023-01-23T22:19:25.668Z,11.52
2023-01-23T22:24:28.269Z,11.25
2023-01-23T22:29:30.474Z,11.68
2023-01-23T22:34:32.866Z,11.45
2023-01-23T22:39:35.107Z,11.65
2023-01-23T22:44:37.452Z,10.63
2023-01-23T22:49:39.809Z,11.27
2023-01-23T22:54:42.107Z,11.55
2023-01-23T22:59:44.345Z,11.55
2023-01-23T23:04:49.916Z,11.68
2023-01-23T23:09:52.198Z,11.27
2023-01-23T23:14:54.434Z,11.32
2023-01-23T23:19:56.732Z,10.98
2023-01-23T23:24:58.968Z,11.43
2023-01-23T23:30:01.177Z,12.13
2023-01-23T23:35:03.528Z,11.45
2023-01-23T23:40:06.375Z,10.98
2023-01-23T23:45:09.063Z,11.35
2023-01-23T23:50:11.901Z,11.20
2023-01-23T23:55:14.655Z,11.60
